createdAt,value
2019-04-07T00:02:26.326Z,14.80
2019-04-07T00:04:54.566Z,14.80
2019-04-07T00:07:22.894Z,14.80
2019-04-07T00:09:50.502Z,14.80
2019-04-07T00:12:17.954Z,14.80
2019-04-07T00:14:45.800Z,15.00
2019-04-07T00:17:13.812Z,14.80
2019-04-07T00:19:42.255Z,14.80
2019-04-07T00:22:10.226Z,14.90
2019-04-07T00:24:39.199Z,14.80
2019-04-07T00:27:06.961Z,14.80
2019-04-07T00:29:35.481Z,14.80
2019-04-07T00:32:03.575Z,14.90
2019-04-07T00:34:31.602Z,14.80
2019-04-07T00:37:00.016Z,14.80
2019-04-07T00:39:28.020Z,14.90
2019-04-07T00:41:56.629Z,14.90
2019-04-07T00:44:24.702Z,14.80
2019-04-07T00:46:52.883Z,14.80
2019-04-07T00:49:20.973Z,14.90
2019-04-07T00:51:49.852Z,14.90
2019-04-07T00:54:17.740Z,14.90
2019-04-07T00:56:45.790Z,14.90
2019-04-07T00:59:13.431Z,14.90
2019-04-07T01:01:41.449Z,14.90
2019-04-07T01:04:09.226Z,14.90
2019-04-07T01:06:37.540Z,14.90
2019-04-07T01:09:09.091Z,14.90
2019-04-07T01:11:37.414Z,14.90
2019-04-07T01:14:05.126Z,14.70
2019-04-07T01:16:33.014Z,14.90
2019-04-07T01:19:00.790Z,14.80
2019-04-07T01:21:29.161Z,14.90
2019-04-07T01:23:57.869Z,14.60
2019-04-07T01:26:26.602Z,14.90
2019-04-07T01:28:55.161Z,14.90
2019-04-07T01:31:22.994Z,14.90
2019-04-07T01:33:50.575Z,14.70
2019-04-07T01:36:18.526Z,14.90
2019-04-07T01:38:46.620Z,14.90
2019-04-07T01:41:34.912Z,15.00
2019-04-07T01:44:21.064Z,15.00
2019-04-07T01:47:02.520Z,15.00
2019-04-07T01:49:37.653Z,15.00
2019-04-07T01:52:17.275Z,14.90
2019-04-07T01:55:01.298Z,15.00
2019-04-07T01:57:54.608Z,15.00
2019-04-07T02:00:56.847Z,15.00
2019-04-07T02:03:59.449Z,15.00
2019-04-07T02:06:52.898Z,15.00
2019-04-07T02:09:53.378Z,15.20
2019-04-07T02:12:53.321Z,15.00
2019-04-07T02:15:35.720Z,15.00
2019-04-07T02:18:09.238Z,15.00
2019-04-07T02:21:06.238Z,15.00
2019-04-07T02:24:05.875Z,15.00
2019-04-07T02:26:58.875Z,15.00
2019-04-07T02:29:44.668Z,15.00
2019-04-07T02:32:25.880Z,15.00
2019-04-07T02:35:12.869Z,15.00
2019-04-07T02:37:46.017Z,15.00
2019-04-07T02:40:33.019Z,15.00
2019-04-07T02:43:19.960Z,15.00
2019-04-07T02:46:06.744Z,15.00
2019-04-07T02:48:52.798Z,15.00
2019-04-07T02:51:45.749Z,14.90
2019-04-07T02:54:40.045Z,15.00
2019-04-07T02:57:15.279Z,15.00
2019-04-07T03:00:01.154Z,15.00
2019-04-07T03:02:48.230Z,15.00
2019-04-07T03:05:29.562Z,15.00
2019-04-07T03:08:19.927Z,15.00
2019-04-07T03:10:59.928Z,14.90
2019-04-07T03:13:46.492Z,15.00
2019-04-07T03:16:43.771Z,14.90
2019-04-07T03:19:34.241Z,14.90
2019-04-07T03:22:20.750Z,14.90
2019-04-07T03:25:06.599Z,14.90
2019-04-07T03:27:46.415Z,14.80
2019-04-07T03:30:25.747Z,14.80
2019-04-07T03:33:29.554Z,14.80
2019-04-07T03:36:11.647Z,14.80
2019-04-07T03:39:07.290Z,14.50
2019-04-07T03:41:53.731Z,14.70
2019-04-07T03:44:47.081Z,14.70
2019-04-07T03:47:23.496Z,14.70
2019-04-07T03:50:13.977Z,14.70
2019-04-07T03:52:58.415Z,14.50
2019-04-07T03:55:57.783Z,14.60
2019-04-07T03:58:44.190Z,14.70
2019-04-07T04:01:35.608Z,14.70
2019-04-07T04:04:30.009Z,14.70
2019-04-07T04:07:28.416Z,14.90
2019-04-07T04:09:58.021Z,14.70
2019-04-07T04:12:54.343Z,14.70
2019-04-07T04:15:29.830Z,15.00
2019-04-07T04:17:57.695Z,14.60
2019-04-07T04:20:25.373Z,14.60
2019-04-07T04:22:52.883Z,14.60
2019-04-07T04:25:21.218Z,14.60
2019-04-07T04:27:49.204Z,14.60
2019-04-07T04:30:17.761Z,14.60
2019-04-07T04:32:46.391Z,14.60
2019-04-07T04:35:14.878Z,14.60
2019-04-07T04:37:48.749Z,14.60
2019-04-07T04:40:13.989Z,14.50
2019-04-07T04:42:42.088Z,14.50
2019-04-07T04:45:10.423Z,14.60
2019-04-07T04:47:39.339Z,14.30
2019-04-07T04:50:08.072Z,14.50
2019-04-07T04:52:36.854Z,14.50
2019-04-07T04:55:04.829Z,14.50
2019-04-07T04:57:33.986Z,14.50
2019-04-07T05:00:03.776Z,14.40
2019-04-07T05:02:32.575Z,14.40
2019-04-07T05:05:02.441Z,14.30
2019-04-07T05:07:30.807Z,14.40
2019-04-07T05:09:58.856Z,14.40
2019-04-07T05:12:28.683Z,14.40
2019-04-07T05:14:57.162Z,14.40
2019-04-07T05:17:26.036Z,14.30
2019-04-07T05:19:54.977Z,14.30
2019-04-07T05:22:23.135Z,14.30
2019-04-07T05:24:50.940Z,14.30
2019-04-07T05:27:19.575Z,14.30
2019-04-07T05:29:47.831Z,14.20
2019-04-07T05:32:20.058Z,14.20
2019-04-07T05:34:48.907Z,14.20
2019-04-07T05:37:16.717Z,14.20
2019-04-07T05:39:45.057Z,14.20
2019-04-07T05:42:13.480Z,14.20
2019-04-07T05:44:42.182Z,14.20
2019-04-07T05:47:12.285Z,14.20
2019-04-07T05:49:39.801Z,14.20
2019-04-07T05:52:08.473Z,14.20
2019-04-07T05:54:36.212Z,14.10
2019-04-07T05:57:04.285Z,14.10
2019-04-07T05:59:32.834Z,14.10
2019-04-07T06:02:02.554Z,14.10
2019-04-07T06:04:31.511Z,14.20
2019-04-07T06:06:59.278Z,14.20
2019-04-07T06:09:28.071Z,14.20
2019-04-07T06:11:56.035Z,14.20
2019-04-07T06:14:24.614Z,14.10
2019-04-07T06:16:54.576Z,14.20
2019-04-07T06:19:22.220Z,14.20
2019-04-07T06:21:51.432Z,14.20
2019-04-07T06:24:22.232Z,14.20
2019-04-07T06:26:50.294Z,14.20
2019-04-07T06:29:19.911Z,14.20
2019-04-07T06:31:49.543Z,14.20
2019-04-07T06:34:18.529Z,14.30
2019-04-07T06:36:51.469Z,14.30
2019-04-07T06:39:19.251Z,14.30
2019-04-07T06:41:48.883Z,14.30
2019-04-07T06:44:20.937Z,14.30
2019-04-07T06:46:57.940Z,14.30
2019-04-07T06:49:51.971Z,14.30
2019-04-07T06:52:46.591Z,14.30
2019-04-07T06:55:37.147Z,14.40
2019-04-07T06:58:10.237Z,14.40
2019-04-07T07:01:00.276Z,14.40
2019-04-07T07:04:08.623Z,14.40
2019-04-07T07:06:48.349Z,14.40
2019-04-07T07:09:31.790Z,14.40
2019-04-07T07:12:20.590Z,14.50
2019-04-07T07:15:05.488Z,14.50
2019-04-07T07:18:08.942Z,14.50
2019-04-07T07:20:46.190Z,14.50
2019-04-07T07:23:16.972Z,14.50
2019-04-07T07:25:44.399Z,14.60
2019-04-07T07:28:13.416Z,14.60
2019-04-07T07:30:42.593Z,14.60
2019-04-07T07:33:11.174Z,14.60
2019-04-07T07:35:39.848Z,14.60
2019-04-07T07:38:07.981Z,14.60
2019-04-07T07:40:36.035Z,14.60
2019-04-07T07:43:04.667Z,14.70
2019-04-07T07:45:32.975Z,14.70
2019-04-07T07:48:00.999Z,14.70
2019-04-07T07:50:29.924Z,14.70
2019-04-07T07:52:58.207Z,14.70
2019-04-07T07:55:26.461Z,14.80
2019-04-07T07:57:57.986Z,14.80
2019-04-07T08:00:24.550Z,14.80
2019-04-07T08:02:53.469Z,14.80
2019-04-07T08:05:29.880Z,14.90
2019-04-07T08:07:56.141Z,14.90
2019-04-07T08:10:25.377Z,14.90
2019-04-07T08:12:54.489Z,14.90
2019-04-07T08:15:25.405Z,15.00
2019-04-07T08:17:52.125Z,15.00
2019-04-07T08:20:20.051Z,15.00
2019-04-07T08:22:48.196Z,15.00
2019-04-07T08:25:16.341Z,15.00
2019-04-07T08:27:44.343Z,14.80
2019-04-07T08:30:13.863Z,15.10
2019-04-07T08:32:42.271Z,15.10
2019-04-07T08:35:10.630Z,15.10
2019-04-07T08:37:39.328Z,15.20
2019-04-07T08:40:13.010Z,15.20
2019-04-07T08:42:41.080Z,15.20
2019-04-07T08:45:10.343Z,15.20
2019-04-07T08:47:39.105Z,15.30
2019-04-07T08:50:07.262Z,15.30
2019-04-07T08:52:38.480Z,15.30
2019-04-07T08:55:06.094Z,15.30
2019-04-07T08:57:34.739Z,15.40
2019-04-07T09:00:02.610Z,15.40
2019-04-07T09:02:31.241Z,15.40
2019-04-07T09:04:59.107Z,15.40
2019-04-07T09:07:27.636Z,15.40
2019-04-07T09:09:56.678Z,15.40
2019-04-07T09:12:28.944Z,15.50
2019-04-07T09:14:58.333Z,15.50
2019-04-07T09:17:44.957Z,15.50
2019-04-07T09:20:25.686Z,15.60
2019-04-07T09:23:02.983Z,15.60
2019-04-07T09:25:50.063Z,15.60
2019-04-07T09:28:38.857Z,15.60
2019-04-07T09:31:24.645Z,15.70
2019-04-07T09:33:58.896Z,15.70
2019-04-07T09:36:48.455Z,15.70
2019-04-07T09:39:50.739Z,15.70
2019-04-07T09:42:24.403Z,15.70
2019-04-07T09:45:15.909Z,15.80
2019-04-07T09:48:07.548Z,15.80
2019-04-07T09:51:08.801Z,15.80
2019-04-07T09:53:50.254Z,15.80
2019-04-07T09:56:36.216Z,15.90
2019-04-07T09:59:20.147Z,15.90
2019-04-07T10:02:01.486Z,15.90
2019-04-07T10:04:56.007Z,15.90
2019-04-07T10:07:49.964Z,15.90
2019-04-07T10:10:43.804Z,15.90
2019-04-07T10:13:34.128Z,16.10
2019-04-07T10:16:11.006Z,16.10
2019-04-07T10:19:11.234Z,16.10
2019-04-07T10:21:57.283Z,16.20
2019-04-07T10:24:43.216Z,15.90
2019-04-07T10:27:29.663Z,16.20
2019-04-07T10:30:09.950Z,16.20
2019-04-07T10:32:50.236Z,16.30
2019-04-07T10:35:33.446Z,16.30
2019-04-07T10:38:09.974Z,16.30
2019-04-07T10:40:43.989Z,16.30
2019-04-07T10:43:33.846Z,16.30
2019-04-07T10:46:11.140Z,16.30
2019-04-07T10:48:59.063Z,16.40
2019-04-07T10:51:52.265Z,16.40
2019-04-07T10:54:29.455Z,16.50
2019-04-07T10:57:20.514Z,16.50
2019-04-07T11:00:05.717Z,16.50
2019-04-07T11:02:44.765Z,16.60
2019-04-07T11:05:41.535Z,16.60
2019-04-07T11:08:41.114Z,16.70
2019-04-07T11:11:38.951Z,16.70
2019-04-07T11:14:30.684Z,16.70
2019-04-07T11:17:18.256Z,16.70
2019-04-07T11:20:05.409Z,16.80
2019-04-07T11:22:56.301Z,16.80
2019-04-07T11:25:44.009Z,16.90
2019-04-07T11:28:28.537Z,17.00
2019-04-07T11:31:24.150Z,17.10
2019-04-07T11:34:23.888Z,16.90
2019-04-07T11:37:27.514Z,17.10
2019-04-07T11:40:18.108Z,17.20
2019-04-07T11:43:02.221Z,17.30
2019-04-07T11:45:52.249Z,17.30
2019-04-07T11:48:41.592Z,17.40
2019-04-07T11:51:15.173Z,17.40
2019-04-07T11:54:01.686Z,17.40
2019-04-07T11:56:38.211Z,17.40
2019-04-07T11:59:28.572Z,17.40
2019-04-07T12:02:08.863Z,17.40
2019-04-07T12:04:49.006Z,17.40
2019-04-07T12:07:40.254Z,17.40
2019-04-07T12:10:22.527Z,17.50
2019-04-07T12:13:10.271Z,17.50
2019-04-07T12:15:50.901Z,17.40
2019-04-07T12:18:42.967Z,17.50
2019-04-07T12:21:21.582Z,17.50
2019-04-07T12:24:10.655Z,17.50
2019-04-07T12:26:45.230Z,17.50
2019-04-07T12:29:47.375Z,17.50
2019-04-07T12:32:34.222Z,17.50
2019-04-07T12:35:26.170Z,17.50
2019-04-07T12:38:19.393Z,17.50
2019-04-07T12:41:12.511Z,17.50
2019-04-07T12:43:47.453Z,17.50
2019-04-07T12:46:21.116Z,17.50
2019-04-07T12:49:09.380Z,17.50
2019-04-07T12:51:55.861Z,17.50
2019-04-07T12:54:52.514Z,17.60
2019-04-07T12:57:43.583Z,17.60
2019-04-07T13:00:29.161Z,17.60
2019-04-07T13:03:04.436Z,17.70
2019-04-07T13:05:50.916Z,17.80
2019-04-07T13:08:37.054Z,17.80
2019-04-07T13:11:26.478Z,17.90
2019-04-07T13:14:08.152Z,17.80
2019-04-07T13:17:02.975Z,18.10
2019-04-07T13:19:48.936Z,18.20
2019-04-07T13:22:31.922Z,18.30
2019-04-07T13:25:18.668Z,18.40
2019-04-07T13:28:09.667Z,18.50
2019-04-07T13:30:53.010Z,18.50
2019-04-07T13:33:41.285Z,18.70
2019-04-07T13:36:22.462Z,18.80
2019-04-07T13:38:55.765Z,18.80
2019-04-07T13:41:50.441Z,18.90
2019-04-07T13:44:23.726Z,18.90
2019-04-07T13:47:23.182Z,18.90
2019-04-07T13:50:04.192Z,18.90
2019-04-07T13:52:59.079Z,18.80
2019-04-07T13:55:35.047Z,18.80
2019-04-07T13:58:20.835Z,18.80
2019-04-07T14:01:08.503Z,18.80
2019-04-07T14:03:56.513Z,18.80
2019-04-07T14:06:44.924Z,18.80
2019-04-07T14:09:48.227Z,18.70
2019-04-07T14:12:27.150Z,18.70
2019-04-07T14:15:21.548Z,18.70
2019-04-07T14:18:12.325Z,18.60
2019-04-07T14:20:49.710Z,18.60
2019-04-07T14:23:42.289Z,18.60
2019-04-07T14:26:25.818Z,18.60
2019-04-07T14:29:14.096Z,18.60
2019-04-07T14:32:10.474Z,18.50
2019-04-07T14:34:58.540Z,18.50
2019-04-07T14:37:37.272Z,18.50
2019-04-07T14:40:31.754Z,18.50
2019-04-07T14:43:17.748Z,18.40
2019-04-07T14:46:12.054Z,18.60
2019-04-07T14:48:58.949Z,18.50
2019-04-07T14:51:46.144Z,18.40
2019-04-07T14:54:37.730Z,18.50
2019-04-07T14:57:41.545Z,18.50
2019-04-07T15:00:31.819Z,18.50
2019-04-07T15:03:00.933Z,18.50
2019-04-07T15:05:32.738Z,18.50
2019-04-07T15:08:20.489Z,18.60
2019-04-07T15:10:51.580Z,18.70
2019-04-07T15:13:24.088Z,18.70
2019-04-07T15:15:51.819Z,18.80
2019-04-07T15:18:21.533Z,18.90
2019-04-07T15:20:50.479Z,19.00
2019-04-07T15:23:18.685Z,19.00
2019-04-07T15:25:47.289Z,19.20
2019-04-07T15:28:15.452Z,19.20
2019-04-07T15:30:47.040Z,19.20
2019-04-07T15:33:13.680Z,19.30
2019-04-07T15:35:45.182Z,19.20
2019-04-07T15:38:11.417Z,19.20
2019-04-07T15:40:39.649Z,19.20
2019-04-07T15:43:10.930Z,19.20
2019-04-07T15:45:39.757Z,19.10
2019-04-07T15:48:08.193Z,18.90
2019-04-07T15:50:38.032Z,19.20
2019-04-07T15:53:07.259Z,19.20
2019-04-07T15:55:45.888Z,19.20
2019-04-07T15:58:05.538Z,19.10
2019-04-07T16:00:35.202Z,19.20
2019-04-07T16:03:04.189Z,19.20
2019-04-07T16:05:39.908Z,19.10
2019-04-07T16:08:02.264Z,19.20
2019-04-07T16:10:31.309Z,19.10
2019-04-07T16:12:59.559Z,19.10
2019-04-07T16:15:27.973Z,19.10
2019-04-07T16:17:56.622Z,19.10
2019-04-07T16:20:29.036Z,19.10
2019-04-07T16:22:54.352Z,19.10
2019-04-07T16:25:25.460Z,19.10
2019-04-07T16:27:51.552Z,19.30
2019-04-07T16:30:20.429Z,19.10
2019-04-07T16:32:48.723Z,19.20
2019-04-07T16:35:18.213Z,19.20
2019-04-07T16:37:46.762Z,19.20
2019-04-07T16:40:19.566Z,19.20
2019-04-07T16:43:03.025Z,19.30
2019-04-07T16:45:18.048Z,19.20
2019-04-07T16:47:47.719Z,19.20
2019-04-07T16:50:18.525Z,19.20
2019-04-07T16:52:47.118Z,19.10
2019-04-07T16:55:41.626Z,19.20
2019-04-07T16:58:11.642Z,19.10
2019-04-07T17:00:40.033Z,19.10
2019-04-07T17:03:08.161Z,19.10
2019-04-07T17:05:36.437Z,19.10
2019-04-07T17:08:05.480Z,19.10
2019-04-07T17:10:35.300Z,19.20
2019-04-07T17:13:15.261Z,19.30
2019-04-07T17:15:38.208Z,19.30
2019-04-07T17:18:08.196Z,19.30
2019-04-07T17:20:37.729Z,19.40
2019-04-07T17:23:05.942Z,19.40
2019-04-07T17:25:34.619Z,19.40
2019-04-07T17:28:04.078Z,19.40
2019-04-07T17:30:32.887Z,19.30
2019-04-07T17:33:03.291Z,19.30
2019-04-07T17:35:30.745Z,19.30
2019-04-07T17:38:04.096Z,19.30
2019-04-07T17:40:33.857Z,19.30
2019-04-07T17:43:28.759Z,19.00
2019-04-07T17:46:10.808Z,19.20
2019-04-07T17:49:00.042Z,19.10
2019-04-07T17:51:43.874Z,19.10
2019-04-07T17:54:31.133Z,19.00
2019-04-07T17:57:10.459Z,19.00
2019-04-07T18:00:04.689Z,19.00
2019-04-07T18:02:54.905Z,19.00
2019-04-07T18:05:29.271Z,18.90
2019-04-07T18:08:22.557Z,18.90
2019-04-07T18:11:29.319Z,18.90
2019-04-07T18:14:16.925Z,18.80
2019-04-07T18:17:08.617Z,18.80
2019-04-07T18:20:06.450Z,18.80
2019-04-07T18:22:42.249Z,18.70
2019-04-07T18:25:42.605Z,18.70
2019-04-07T18:28:26.067Z,18.70
2019-04-07T18:31:15.630Z,18.70
2019-04-07T18:34:12.283Z,18.60
2019-04-07T18:37:09.666Z,18.60
2019-04-07T18:40:00.730Z,18.60
2019-04-07T18:42:45.622Z,18.50
2019-04-07T18:45:29.200Z,18.50
2019-04-07T18:48:16.861Z,18.50
2019-04-07T18:51:14.769Z,18.50
2019-04-07T18:54:10.786Z,18.40
2019-04-07T18:57:09.854Z,18.40
2019-04-07T18:59:49.987Z,18.40
2019-04-07T19:02:49.377Z,18.30
2019-04-07T19:05:45.686Z,18.40
2019-04-07T19:08:33.761Z,18.30
2019-04-07T19:11:29.669Z,18.30
2019-04-07T19:14:33.474Z,18.30
2019-04-07T19:16:54.737Z,18.30
2019-04-07T19:19:41.942Z,18.20
2019-04-07T19:22:27.635Z,18.20
2019-04-07T19:25:11.407Z,18.20
2019-04-07T19:28:01.066Z,18.20
2019-04-07T19:30:49.847Z,18.20
2019-04-07T19:33:34.059Z,18.10
2019-04-07T19:36:24.043Z,18.20
2019-04-07T19:39:29.614Z,17.90
2019-04-07T19:42:22.747Z,18.10
2019-04-07T19:45:05.651Z,18.10
2019-04-07T19:48:10.075Z,18.10
2019-04-07T19:51:01.216Z,18.10
2019-04-07T19:53:56.020Z,18.10
2019-04-07T19:56:46.541Z,18.00
2019-04-07T19:59:21.721Z,18.10
2019-04-07T20:02:13.520Z,18.00
2019-04-07T20:05:19.708Z,18.00
2019-04-07T20:08:05.694Z,18.00
2019-04-07T20:10:54.474Z,18.00
2019-04-07T20:13:44.911Z,18.00
2019-04-07T20:16:30.589Z,18.00
2019-04-07T20:19:36.187Z,18.00
2019-04-07T20:22:17.476Z,18.00
2019-04-07T20:25:03.295Z,17.90
2019-04-07T20:27:37.352Z,17.90
2019-04-07T20:30:25.397Z,18.00
2019-04-07T20:33:00.732Z,17.90
2019-04-07T20:35:35.177Z,17.90
2019-04-07T20:38:27.128Z,17.90
2019-04-07T20:41:15.460Z,17.90
2019-04-07T20:44:04.140Z,17.90
2019-04-07T20:46:51.656Z,17.90
2019-04-07T20:49:32.759Z,17.90
2019-04-07T20:52:24.071Z,17.90
2019-04-07T20:55:04.834Z,17.90
2019-04-07T20:57:54.042Z,17.90
2019-04-07T21:00:57.720Z,17.90
2019-04-07T21:03:49.319Z,17.80
2019-04-07T21:06:50.794Z,17.80
2019-04-07T21:09:53.543Z,17.80
2019-04-07T21:12:45.420Z,17.80
2019-04-07T21:15:41.225Z,17.80
2019-04-07T21:18:31.382Z,17.80
2019-04-07T21:21:04.421Z,17.80
2019-04-07T21:23:41.235Z,17.80
2019-04-07T21:26:24.508Z,17.70
2019-04-07T21:29:20.896Z,17.70
2019-04-07T21:32:10.325Z,17.70
2019-04-07T21:34:56.234Z,17.70
2019-04-07T21:37:48.963Z,17.60
2019-04-07T21:40:24.565Z,17.60
2019-04-07T21:43:18.032Z,17.60
2019-04-07T21:46:03.864Z,17.60
2019-04-07T21:48:50.949Z,17.60
2019-04-07T21:51:36.443Z,17.60
2019-04-07T21:54:20.184Z,17.60
2019-04-07T21:57:11.021Z,17.60
2019-04-07T21:59:59.043Z,17.50
2019-04-07T22:02:51.290Z,17.50
2019-04-07T22:05:26.853Z,17.50
2019-04-07T22:08:08.018Z,17.50
2019-04-07T22:10:31.910Z,17.40
2019-04-07T22:13:03.657Z,17.40
2019-04-07T22:15:42.198Z,17.40
2019-04-07T22:17:58.566Z,17.30
2019-04-07T22:20:27.748Z,17.30
2019-04-07T22:22:59.784Z,17.30
2019-04-07T22:25:29.232Z,17.30
2019-04-07T22:27:57.528Z,17.30
2019-04-07T22:30:26.194Z,17.10
2019-04-07T22:32:54.143Z,17.20
2019-04-07T22:35:21.773Z,17.20
2019-04-07T22:37:50.248Z,17.20
2019-04-07T22:40:19.294Z,17.20
2019-04-07T22:42:48.498Z,17.20
2019-04-07T22:45:16.518Z,17.20
2019-04-07T22:47:44.537Z,17.10
2019-04-07T22:50:12.826Z,17.10
2019-04-07T22:52:41.743Z,17.10
2019-04-07T22:55:09.764Z,17.10
2019-04-07T22:57:37.564Z,17.10
2019-04-07T23:00:06.425Z,17.10
2019-04-07T23:02:33.843Z,17.10
2019-04-07T23:05:01.268Z,17.00
2019-04-07T23:07:29.622Z,17.00
2019-04-07T23:09:57.982Z,17.00
2019-04-07T23:12:26.325Z,17.00
2019-04-07T23:14:55.006Z,16.90
2019-04-07T23:17:22.470Z,16.90
2019-04-07T23:19:50.435Z,16.90
2019-04-07T23:22:18.654Z,16.90
2019-04-07T23:24:47.392Z,16.90
2019-04-07T23:27:14.857Z,16.80
2019-04-07T23:29:42.358Z,16.80
2019-04-07T23:32:10.206Z,16.80
2019-04-07T23:34:37.757Z,16.80
2019-04-07T23:37:06.057Z,16.80
2019-04-07T23:39:34.079Z,16.80
2019-04-07T23:42:01.372Z,16.70
2019-04-07T23:44:29.677Z,16.80
2019-04-07T23:46:57.702Z,16.80
2019-04-07T23:49:26.071Z,16.80
2019-04-07T23:51:53.895Z,16.80
2019-04-07T23:54:21.437Z,16.80
2019-04-07T23:56:49.864Z,16.80
2019-04-07T23:59:18.608Z,16.80
